Time;durP1;ratioP1;P1;durP2;ratioP2;P2;SDS_P1;SDS_P2;PMS_P1;PMS_P2;Temp;Humidity;BMP_temperature;BMP_pressure;BME280_temperature;BME280_humidity;BME280_pressure;Samples;Min_cycle;Max_cycle;Signal;HPM_P1;HPM_P2
2023/09/22 00:00:56;;;;;;;0.30;0.30;;;;;;;19.44;83.76;94331.37;4357157;32;20193;-62
2023/09/22 00:03:23;;;;;;;0.17;0.17;;;;;;;19.28;79.45;94333.56;4369493;32;20207;-62
2023/09/22 00:05:52;;;;;;;0.00;0.00;;;;;;;19.25;78.21;94337.00;4332933;32;20264;-63
2023/09/22 00:08:26;;;;;;;0.67;0.67;;;;;;;19.30;78.20;94333.97;4346774;32;20252;-63
2023/09/22 00:10:55;;;;;;;0.73;0.10;;;;;;;19.32;77.39;94320.94;4369931;32;20215;-63
2023/09/22 00:13:22;;;;;;;0.50;0.50;;;;;;;19.34;75.48;94311.31;4377674;32;20199;-62
2023/09/22 00:15:47;;;;;;;0.10;0.10;;;;;;;19.38;79.73;94328.25;4337070;32;20193;-63
2023/09/22 00:18:13;;;;;;;0.07;0.07;;;;;;;19.24;76.39;94330.84;4370864;32;20279;-62
2023/09/22 00:20:39;;;;;;;0.37;0.37;;;;;;;19.16;77.08;94318.47;4338899;32;20256;-63
2023/09/22 00:23:08;;;;;;;0.27;0.20;;;;;;;19.09;79.51;94318.44;4349622;32;20241;-63
2023/09/22 00:25:34;;;;;;;1.50;0.20;;;;;;;19.05;79.17;94323.00;4360912;32;20201;-62
2023/09/22 00:28:00;;;;;;;0.33;0.33;;;;;;;18.93;77.79;94317.91;4339733;32;20250;-62
2023/09/22 00:30:28;;;;;;;0.93;0.10;;;;;;;18.88;77.18;94319.03;4371993;32;20264;-62
2023/09/22 00:32:57;;;;;;;0.40;0.27;;;;;;;18.93;76.73;94310.59;4368511;32;20227;-62
2023/09/22 00:35:22;;;;;;;0.27;0.23;;;;;;;18.84;76.76;94310.16;4342005;32;20208;-63
2023/09/22 00:37:50;;;;;;;0.30;0.30;;;;;;;18.77;76.17;94308.16;4356600;32;20193;-62
2023/09/22 00:40:15;;;;;;;0.20;0.20;;;;;;;18.72;75.78;94302.34;4304494;32;20189;-63
2023/09/22 00:42:41;;;;;;;0.10;0.10;;;;;;;18.71;73.61;94296.19;4337251;32;20234;-62
2023/09/22 00:45:07;;;;;;;0.73;0.27;;;;;;;18.66;74.09;94296.56;4376635;32;20215;-62
2023/09/22 00:47:34;;;;;;;0.00;0.00;;;;;;;18.73;76.84;94306.59;4368941;32;20196;-62
2023/09/22 00:50:07;;;;;;;0.10;0.10;;;;;;;18.51;74.21;94311.72;4346403;32;20237;-62
2023/09/22 00:52:33;;;;;;;0.10;0.10;;;;;;;18.60;74.64;94314.16;4352330;32;20193;-62
2023/09/22 00:54:59;;;;;;;0.50;0.10;;;;;;;18.60;75.87;94311.47;4356848;32;20189;-62
2023/09/22 00:57:25;;;;;;;0.13;0.13;;;;;;;18.49;74.94;94307.87;4358227;32;20206;-63
2023/09/22 00:59:52;;;;;;;1.10;0.27;;;;;;;18.39;73.74;94303.91;4365631;32;20204;-62
2023/09/22 01:02:17;;;;;;;0.47;0.33;;;;;;;18.48;75.51;94301.72;4355360;32;20232;-63
2023/09/22 01:04:44;;;;;;;0.10;0.10;;;;;;;18.49;74.33;94302.50;4364483;32;20219;-62
2023/09/22 01:07:09;;;;;;;0.27;0.27;;;;;;;18.45;74.80;94299.00;4368914;32;20181;-62
2023/09/22 01:09:37;;;;;;;0.00;0.00;;;;;;;18.34;78.13;94304.25;4365224;32;20238;-62
2023/09/22 01:12:03;;;;;;;0.10;0.10;;;;;;;18.26;74.64;94315.28;4372926;32;20196;-62
2023/09/22 01:14:29;;;;;;;0.20;0.20;;;;;;;18.27;74.59;94328.34;4337869;32;20228;-62
2023/09/22 01:16:55;;;;;;;0.10;0.10;;;;;;;18.36;75.44;94323.44;4310821;32;20228;-62
2023/09/22 01:19:22;;;;;;;0.10;0.10;;;;;;;18.36;76.14;94323.44;4343968;32;20225;-62
2023/09/22 01:21:50;;;;;;;0.00;0.00;;;;;;;18.23;73.95;94306.06;4345813;32;20185;-63
2023/09/22 01:24:15;;;;;;;0.03;0.03;;;;;;;18.35;76.58;94303.09;4334167;32;20302;-62
2023/09/22 01:26:41;;;;;;;1.30;0.43;;;;;;;18.40;75.76;94304.69;4349524;32;20189;-62
2023/09/22 01:29:07;;;;;;;0.30;0.30;;;;;;;18.29;75.87;94309.94;4343069;32;20197;-62
2023/09/22 01:31:33;;;;;;;0.20;0.20;;;;;;;18.30;77.16;94308.78;4346300;32;20275;-62
2023/09/22 01:34:00;;;;;;;1.50;0.40;;;;;;;18.32;75.97;94303.84;4334593;32;20280;-62
2023/09/22 01:36:31;;;;;;;0.13;0.13;;;;;;;18.43;77.89;94312.78;4340937;32;20201;-62
2023/09/22 01:38:59;;;;;;;0.10;0.10;;;;;;;18.48;80.57;94307.09;4376732;32;20215;-62
2023/09/22 01:41:24;;;;;;;0.90;0.80;;;;;;;18.49;77.45;94297.91;4370015;32;20188;-62
2023/09/22 01:43:51;;;;;;;0.07;0.07;;;;;;;18.51;78.31;94292.91;4377116;32;20211;-62
2023/09/22 01:46:16;;;;;;;0.10;0.10;;;;;;;18.52;76.51;94305.19;4362951;32;20198;-62
2023/09/22 01:48:43;;;;;;;0.00;0.00;;;;;;;18.53;75.07;94308.66;4344335;32;20288;-62
2023/09/22 01:51:08;;;;;;;1.43;0.20;;;;;;;18.38;76.42;94307.75;4375406;32;20242;-62
2023/09/22 01:53:35;;;;;;;0.17;0.17;;;;;;;18.28;76.34;94308.41;4375781;32;20196;-62
2023/09/22 01:56:00;;;;;;;0.20;0.20;;;;;;;18.30;77.57;94311.47;4367306;32;20228;-61
2023/09/22 01:58:26;;;;;;;0.07;0.07;;;;;;;18.26;78.02;94310.69;4364431;32;20212;-62
2023/09/22 02:00:55;;;;;;;0.27;0.27;;;;;;;18.18;78.84;94306.38;4347210;32;20196;-62
2023/09/22 02:03:21;;;;;;;0.10;0.10;;;;;;;18.18;79.78;94298.31;4358589;32;20190;-62
2023/09/22 02:05:49;;;;;;;0.10;0.10;;;;;;;18.17;77.62;94286.03;4340149;32;20213;-63
2023/09/22 02:08:15;;;;;;;0.10;0.10;;;;;;;18.27;80.72;94292.66;4342395;32;20217;-62
2023/09/22 02:10:43;;;;;;;1.00;0.63;;;;;;;18.20;78.29;94285.31;4367723;32;20236;-62
2023/09/22 02:13:10;;;;;;;0.47;0.23;;;;;;;18.27;81.02;94288.06;4356903;32;20185;-62
2023/09/22 02:15:36;;;;;;;0.00;0.00;;;;;;;18.30;80.70;94295.38;4346783;32;20244;-62
2023/09/22 02:18:03;;;;;;;0.10;0.10;;;;;;;18.40;79.47;94302.78;4331637;32;20197;-62
2023/09/22 02:20:32;;;;;;;0.27;0.10;;;;;;;18.38;78.26;94312.34;4351239;32;20247;-62
2023/09/22 02:22:58;;;;;;;0.03;0.03;;;;;;;18.43;80.17;94320.84;4331153;32;20203;-62
2023/09/22 02:25:24;;;;;;;0.10;0.10;;;;;;;18.30;80.64;94310.72;4361616;32;20181;-62
2023/09/22 02:27:55;;;;;;;0.10;0.10;;;;;;;18.47;81.86;94316.31;4347857;32;20254;-62
2023/09/22 02:30:21;;;;;;;0.20;0.20;;;;;;;18.25;78.02;94319.88;4353538;32;20196;-62
2023/09/22 02:32:48;;;;;;;8.70;0.30;;;;;;;18.47;80.54;94316.31;4361242;32;20238;-62
2023/09/22 02:35:16;;;;;;;0.20;0.20;;;;;;;18.27;78.34;94316.84;4358968;32;20201;-62
2023/09/22 02:37:43;;;;;;;0.20;0.20;;;;;;;18.35;80.51;94313.06;4326627;32;20205;-62
2023/09/22 02:40:09;;;;;;;3.20;0.33;;;;;;;18.31;79.06;94317.63;4362181;32;20180;-62
2023/09/22 02:42:36;;;;;;;0.17;0.17;;;;;;;18.39;81.54;94309.28;4333356;32;20256;-62
2023/09/22 02:45:06;;;;;;;0.47;0.47;;;;;;;18.44;80.51;94311.66;4359003;32;20258;-61
2023/09/22 02:47:33;;;;;;;0.10;0.10;;;;;;;18.31;79.80;94310.34;4368921;32;20215;-62
2023/09/22 02:49:58;;;;;;;0.00;0.00;;;;;;;18.33;82.22;94313.44;4349314;32;20286;-62
2023/09/22 02:52:23;;;;;;;0.00;0.00;;;;;;;18.23;80.81;94324.84;4374792;32;20251;-62
2023/09/22 02:54:54;;;;;;;0.23;0.20;;;;;;;18.24;79.13;94318.34;4352586;32;20204;-62
2023/09/22 02:57:21;;;;;;;0.10;0.10;;;;;;;18.11;82.27;94319.69;4363531;32;20204;-62
2023/09/22 02:59:58;;;;;;;0.00;0.00;;;;;;;18.08;81.22;94325.81;4359057;32;20188;-61
2023/09/22 03:02:23;;;;;;;0.00;0.00;;;;;;;18.07;81.71;94324.28;4373857;32;20210;-62
2023/09/22 03:04:49;;;;;;;0.40;0.20;;;;;;;18.11;82.73;94322.37;4376587;32;20185;-62
2023/09/22 03:07:14;;;;;;;0.10;0.10;;;;;;;18.19;85.36;94322.13;4334925;32;20208;-62
2023/09/22 03:09:41;;;;;;;0.07;0.07;;;;;;;18.19;84.73;94332.09;4342464;32;20272;-62
2023/09/22 03:12:07;;;;;;;0.27;0.27;;;;;;;18.18;83.71;94341.28;4379304;32;20263;-62
2023/09/22 03:14:34;;;;;;;0.20;0.20;;;;;;;17.87;83.47;94336.28;4363458;32;20212;-62
2023/09/22 03:17:04;;;;;;;0.00;0.00;;;;;;;17.71;83.91;94331.84;4344419;32;20196;-61
2023/09/22 03:19:29;;;;;;;0.30;0.10;;;;;;;17.86;85.30;94330.16;4344655;32;20180;-62
2023/09/22 03:21:56;;;;;;;0.30;0.30;;;;;;;17.92;85.23;94322.53;4364306;32;20234;-62
2023/09/22 03:24:21;;;;;;;0.23;0.23;;;;;;;17.99;86.17;94319.94;4368472;32;20189;-61
2023/09/22 03:26:47;;;;;;;0.30;0.20;;;;;;;17.94;85.09;94321.03;4322689;32;20193;-62
2023/09/22 03:29:12;;;;;;;0.00;0.00;;;;;;;18.03;85.73;94323.44;4350383;32;20306;-62
2023/09/22 03:31:38;;;;;;;0.10;0.10;;;;;;;17.86;85.11;94330.16;4358196;32;20197;-62
2023/09/22 03:34:04;;;;;;;0.10;0.10;;;;;;;17.90;85.78;94325.56;4333508;32;20193;-62
2023/09/22 03:36:35;;;;;;;3.40;0.47;;;;;;;17.87;87.06;94329.75;4365240;32;20251;-62
2023/09/22 03:39:07;;;;;;;0.00;0.00;;;;;;;17.73;84.45;94332.25;4377704;32;20252;-61
2023/09/22 03:41:35;;;;;;;0.00;0.00;;;;;;;17.70;85.21;94335.66;4378236;32;20189;-62
2023/09/22 03:44:01;;;;;;;0.03;0.03;;;;;;;17.79;86.07;94338.09;4376494;32;20295;-62
2023/09/22 03:46:28;;;;;;;2.80;0.70;;;;;;;17.66;87.27;94342.12;4347632;32;20245;-61
2023/09/22 03:48:54;;;;;;;0.10;0.10;;;;;;;17.59;86.39;94340.09;4368632;32;20188;-61
2023/09/22 03:51:20;;;;;;;0.20;0.17;;;;;;;17.49;87.05;94352.19;4367937;32;20200;-62
2023/09/22 03:53:47;;;;;;;0.57;0.57;;;;;;;17.30;87.58;94359.56;4355191;32;20238;-61
2023/09/22 03:56:12;;;;;;;0.10;0.10;;;;;;;17.59;88.76;94358.88;4351867;32;20281;-62
2023/09/22 03:58:40;;;;;;;0.17;0.17;;;;;;;17.51;88.53;94368.69;4362178;32;20211;-62
2023/09/22 04:01:10;;;;;;;0.10;0.10;;;;;;;17.54;89.36;94369.88;4354785;32;20196;-62
2023/09/22 04:03:37;;;;;;;3.40;0.43;;;;;;;17.57;90.29;94363.03;4361572;32;20189;-61
2023/09/22 04:06:05;;;;;;;0.40;0.30;;;;;;;17.41;90.85;94380.06;4354371;32;20204;-62
2023/09/22 04:08:31;;;;;;;0.10;0.10;;;;;;;17.23;90.33;94378.22;4348034;32;20257;-62
2023/09/22 04:11:02;;;;;;;0.00;0.00;;;;;;;17.40;90.21;94367.00;4348119;32;20201;-62
2023/09/22 04:13:30;;;;;;;0.00;0.00;;;;;;;17.14;89.75;94365.81;4363141;32;20197;-62
2023/09/22 04:16:00;;;;;;;0.27;0.13;;;;;;;17.12;90.93;94365.41;4354439;32;20268;-62
2023/09/22 04:18:29;;;;;;;0.47;0.47;;;;;;;17.02;90.83;94373.28;4368929;32;20189;-62
2023/09/22 04:20:57;;;;;;;0.20;0.07;;;;;;;17.08;92.08;94377.97;4362018;32;20197;-62
2023/09/22 04:23:27;;;;;;;0.20;0.20;;;;;;;17.15;92.31;94385.34;4339879;32;20182;-61
2023/09/22 04:25:55;;;;;;;0.40;0.17;;;;;;;17.15;91.70;94383.47;4358129;32;20185;-62
2023/09/22 04:28:25;;;;;;;0.00;0.00;;;;;;;17.13;91.81;94385.72;4344544;32;20204;-62
2023/09/22 04:30:51;;;;;;;3.40;0.47;;;;;;;17.07;91.81;94392.50;4344656;32;20201;-61
2023/09/22 04:33:20;;;;;;;0.00;0.00;;;;;;;17.06;92.13;94398.22;4333342;32;20212;-62
2023/09/22 04:35:50;;;;;;;0.87;0.20;;;;;;;17.14;92.41;94398.00;4351055;32;20263;-61
2023/09/22 04:38:18;;;;;;;0.00;0.00;;;;;;;17.03;91.86;94412.34;4370239;32;20184;-62
2023/09/22 04:40:45;;;;;;;0.10;0.10;;;;;;;16.94;93.24;94409.13;4362023;32;20216;-61
2023/09/22 04:43:12;;;;;;;0.20;0.20;;;;;;;17.06;93.87;94409.72;4353084;32;20224;-61
2023/09/22 04:45:45;;;;;;;1.30;0.50;;;;;;;17.13;93.27;94415.19;4367733;32;20197;-61
2023/09/22 04:48:13;;;;;;;0.40;0.40;;;;;;;17.18;92.51;94412.22;4355899;32;20216;-61
2023/09/22 04:50:39;;;;;;;0.10;0.10;;;;;;;17.10;92.85;94417.81;4373664;32;20212;-61
2023/09/22 04:53:06;;;;;;;0.10;0.10;;;;;;;17.21;92.79;94418.00;4372500;32;20189;-61
2023/09/22 04:55:35;;;;;;;0.10;0.10;;;;;;;17.15;91.90;94420.97;4342605;32;20274;-62
2023/09/22 04:58:04;;;;;;;0.10;0.10;;;;;;;16.87;91.86;94419.69;4365328;32;20227;-62
2023/09/22 05:00:33;;;;;;;0.33;0.33;;;;;;;17.00;92.04;94418.41;4367044;32;20186;-62
2023/09/22 05:03:01;;;;;;;0.30;0.30;;;;;;;16.76;90.77;94414.16;4301038;32;20189;-62
2023/09/22 05:05:28;;;;;;;1.37;0.57;;;;;;;16.73;93.56;94423.66;4347290;32;20214;-62
2023/09/22 05:07:55;;;;;;;0.30;0.30;;;;;;;16.72;93.46;94434.72;4378416;32;20189;-61
2023/09/22 05:10:21;;;;;;;0.50;0.50;;;;;;;16.50;93.55;94434.28;4381698;32;20192;-61
2023/09/22 05:12:46;;;;;;;3.27;0.93;;;;;;;16.72;95.24;94440.09;4344049;32;20198;-61
2023/09/22 05:15:13;;;;;;;0.30;0.30;;;;;;;16.78;93.12;94441.34;4362793;32;22363;-61
2023/09/22 05:17:38;;;;;;;0.20;0.20;;;;;;;16.88;94.44;94448.03;4374906;32;20201;-62
2023/09/22 05:20:12;;;;;;;0.80;0.50;;;;;;;16.99;93.86;94459.75;4360419;32;20188;-62
2023/09/22 05:22:42;;;;;;;1.33;0.70;;;;;;;17.08;93.31;94466.41;4374911;32;20184;-61
2023/09/22 05:25:09;;;;;;;0.40;0.40;;;;;;;16.96;93.29;94471.94;4353782;32;20208;-62
2023/09/22 05:27:35;;;;;;;0.53;0.53;;;;;;;17.09;93.64;94464.50;4366159;32;20204;-62
2023/09/22 05:30:02;;;;;;;0.20;0.20;;;;;;;17.03;93.15;94472.09;4366405;32;20250;-62
2023/09/22 05:32:29;;;;;;;0.30;0.30;;;;;;;16.96;93.69;94479.97;4365653;32;20192;-62
2023/09/22 05:34:55;;;;;;;0.07;0.07;;;;;;;16.88;92.96;94472.91;4360970;32;20202;-62
2023/09/22 05:37:21;;;;;;;0.67;0.50;;;;;;;17.01;93.05;94485.06;4380478;32;20235;-62
2023/09/22 05:39:48;;;;;;;0.30;0.30;;;;;;;16.91;92.94;94484.84;4364867;32;20192;-62
2023/09/22 05:42:14;;;;;;;0.17;0.10;;;;;;;16.76;93.62;94489.16;4385108;32;20276;-62
2023/09/22 05:44:41;;;;;;;0.17;0.17;;;;;;;16.95;94.03;94480.31;4363136;32;20215;-61
2023/09/22 05:47:07;;;;;;;0.40;0.40;;;;;;;16.89;93.56;94481.72;4364736;32;20327;-62
2023/09/22 05:49:34;;;;;;;0.73;0.73;;;;;;;16.87;94.36;94489.34;4360424;32;20224;-61
2023/09/22 05:51:59;;;;;;;0.10;0.10;;;;;;;17.00;94.44;94491.53;4373942;32;20215;-62
2023/09/22 05:54:25;;;;;;;0.30;0.27;;;;;;;16.72;93.77;94485.63;4385157;32;20189;-61
2023/09/22 05:56:52;;;;;;;0.10;0.10;;;;;;;16.65;94.23;94491.59;4381029;32;20196;-63
2023/09/22 05:59:18;;;;;;;0.10;0.10;;;;;;;16.82;94.94;94496.56;4358832;32;20189;-62
2023/09/22 06:01:46;;;;;;;0.10;0.10;;;;;;;16.60;94.26;94507.16;4334428;32;20278;-62
2023/09/22 06:04:13;;;;;;;0.47;0.47;;;;;;;16.58;94.64;94514.78;4374578;32;20276;-63
2023/09/22 06:06:39;;;;;;;0.23;0.23;;;;;;;16.43;93.75;94519.81;4375761;32;20192;-62
2023/09/22 06:09:10;;;;;;;0.27;0.20;;;;;;;16.54;94.44;94513.91;4376523;32;20180;-62
2023/09/22 06:11:38;;;;;;;0.10;0.10;;;;;;;16.57;94.40;94505.97;4377041;32;20208;-62
2023/09/22 06:14:05;;;;;;;0.20;0.20;;;;;;;16.43;94.23;94511.00;4362809;32;20199;-62
2023/09/22 06:16:31;;;;;;;0.10;0.10;;;;;;;16.40;94.47;94509.03;4350912;32;20244;-62
2023/09/22 06:18:57;;;;;;;0.10;0.10;;;;;;;16.48;95.26;94510.72;4343530;32;20201;-61
2023/09/22 06:21:23;;;;;;;0.63;0.60;;;;;;;16.25;94.86;94523.22;4338036;32;20200;-62
2023/09/22 06:23:51;;;;;;;0.33;0.33;;;;;;;16.43;96.35;94517.12;4335004;32;20207;-62
2023/09/22 06:26:17;;;;;;;0.10;0.10;;;;;;;16.48;96.81;94514.19;4359774;32;20264;-62
2023/09/22 06:28:44;;;;;;;0.70;0.50;;;;;;;16.42;95.58;94518.25;4350344;32;20197;-62
2023/09/22 06:31:10;;;;;;;0.43;0.43;;;;;;;16.43;96.53;94519.81;4369448;32;20196;-62
2023/09/22 06:33:36;;;;;;;0.23;0.23;;;;;;;16.23;95.40;94520.87;4357808;32;20189;-62
2023/09/22 06:36:06;;;;;;;0.10;0.10;;;;;;;16.12;96.27;94525.22;4365723;32;20192;-62
2023/09/22 06:38:33;;;;;;;0.20;0.20;;;;;;;16.13;95.63;94526.78;4351175;32;20240;-62
2023/09/22 06:41:00;;;;;;;0.10;0.10;;;;;;;16.17;96.05;94522.28;4345639;32;20254;-62
2023/09/22 06:43:27;;;;;;;5.90;1.43;;;;;;;16.15;96.16;94529.91;4340110;32;20300;-62
2023/09/22 06:45:56;;;;;;;0.20;0.20;;;;;;;16.18;96.54;94529.19;4362529;32;20199;-62
2023/09/22 06:48:36;;;;;;;0.50;0.50;;;;;;;16.07;97.44;94533.53;4348615;32;20201;-62
2023/09/22 06:51:02;;;;;;;0.20;0.20;;;;;;;16.10;98.36;94535.50;4354463;32;20232;-62
2023/09/22 06:53:33;;;;;;;0.87;0.40;;;;;;;15.82;97.72;94540.94;4367665;32;20188;-61
2023/09/22 06:56:09;;;;;;;0.80;0.80;;;;;;;15.85;98.12;94542.16;4359728;32;20203;-61
2023/09/22 06:58:37;;;;;;;0.33;0.33;;;;;;;16.03;98.76;94540.69;4315274;32;20200;-62
2023/09/22 07:01:10;;;;;;;0.10;0.10;;;;;;;16.10;98.62;94536.28;4342128;32;20400;-62
2023/09/22 07:03:38;;;;;;;8.83;0.57;;;;;;;16.18;97.67;94545.25;4348271;32;20184;-62
2023/09/22 07:06:10;;;;;;;0.10;0.10;;;;;;;15.75;96.83;94548.81;4336168;32;20196;-62
2023/09/22 07:08:36;;;;;;;0.93;0.33;;;;;;;15.89;97.76;94549.16;4309007;32;20201;-63
2023/09/22 07:11:08;;;;;;;0.10;0.10;;;;;;;15.96;98.48;94556.59;4313693;32;20285;-62
2023/09/22 07:13:37;;;;;;;0.30;0.30;;;;;;;15.88;97.29;94552.16;4333374;32;20180;-62
2023/09/22 07:16:07;;;;;;;0.43;0.43;;;;;;;16.17;98.51;94556.31;4362232;32;20208;-63
2023/09/22 07:18:33;;;;;;;1.03;0.40;;;;;;;16.33;97.88;94565.09;4346930;32;20213;-62
2023/09/22 07:21:00;;;;;;;0.23;0.23;;;;;;;16.45;98.17;94552.34;4373202;32;20193;-63
2023/09/22 07:23:26;;;;;;;0.10;0.10;;;;;;;16.26;96.88;94557.66;4343919;32;20201;-62
2023/09/22 07:26:03;;;;;;;3.80;0.63;;;;;;;16.51;97.12;94552.88;4337359;32;20287;-63
2023/09/22 07:28:29;;;;;;;0.10;0.10;;;;;;;16.59;95.84;94543.09;4344902;32;20205;-63
2023/09/22 07:30:58;;;;;;;1.40;0.53;;;;;;;16.45;95.48;94548.91;4324113;32;20211;-63
2023/09/22 07:33:32;;;;;;;0.27;0.27;;;;;;;16.37;95.51;94548.00;4353050;32;20189;-62
2023/09/22 07:35:58;;;;;;;0.37;0.37;;;;;;;16.49;95.58;94547.09;4324756;32;20211;-63
2023/09/22 07:38:24;;;;;;;1.90;0.40;;;;;;;16.65;95.14;94553.19;4347414;32;20204;-62
2023/09/22 07:40:51;;;;;;;0.20;0.20;;;;;;;16.71;95.38;94551.03;4339921;32;20193;-62
2023/09/22 07:43:17;;;;;;;0.20;0.20;;;;;;;16.92;95.12;94546.13;4359105;32;20203;-62
2023/09/22 07:45:42;;;;;;;0.40;0.40;;;;;;;16.95;94.28;94560.72;4366376;32;20264;-63
2023/09/22 07:48:10;;;;;;;0.53;0.47;;;;;;;17.05;94.13;94560.13;4374322;32;20185;-62
2023/09/22 07:50:39;;;;;;;0.10;0.10;;;;;;;16.85;94.18;94556.69;4365253;32;20188;-62
2023/09/22 07:53:04;;;;;;;0.33;0.30;;;;;;;16.94;93.67;94557.25;4354130;32;20185;-62
2023/09/22 07:55:30;;;;;;;0.30;0.30;;;;;;;16.99;93.79;94567.72;4351617;32;20263;-62
2023/09/22 07:57:57;;;;;;;0.83;0.40;;;;;;;17.11;94.35;94580.97;4336704;32;20201;-62
2023/09/22 08:00:26;;;;;;;0.10;0.10;;;;;;;17.01;94.20;94580.75;4334886;32;20185;-63
2023/09/22 08:02:53;;;;;;;0.20;0.20;;;;;;;16.90;93.79;94579.75;4310703;32;20189;-62
2023/09/22 08:05:19;;;;;;;0.10;0.10;;;;;;;16.79;93.20;94566.91;4356195;32;20204;-62
2023/09/22 08:07:46;;;;;;;0.17;0.17;;;;;;;16.97;94.10;94567.28;4339616;32;20193;-62
2023/09/22 08:10:13;;;;;;;0.00;0.00;;;;;;;16.82;93.82;94562.75;4360847;32;20260;-62
2023/09/22 08:12:42;;;;;;;0.40;0.40;;;;;;;17.00;94.41;94569.25;4368876;32;20266;-62
2023/09/22 08:15:09;;;;;;;0.33;0.33;;;;;;;16.96;94.39;94571.09;4368721;32;20240;-62
2023/09/22 08:17:35;;;;;;;0.30;0.30;;;;;;;16.87;93.75;94565.16;4369609;32;20181;-62
2023/09/22 08:20:07;;;;;;;0.30;0.30;;;;;;;16.95;93.90;94576.78;4354530;32;20193;-62
2023/09/22 08:22:34;;;;;;;0.47;0.47;;;;;;;16.75;93.81;94562.59;4351016;32;20220;-61
2023/09/22 08:25:02;;;;;;;0.10;0.10;;;;;;;16.96;94.20;94564.94;4356802;32;20189;-62
2023/09/22 08:27:29;;;;;;;0.37;0.37;;;;;;;16.87;93.73;94565.16;4375410;32;20202;-61
2023/09/22 08:29:57;;;;;;;0.60;0.47;;;;;;;16.86;93.23;94558.22;4364043;32;20226;-61
2023/09/22 08:32:23;;;;;;;0.20;0.20;;;;;;;17.02;94.04;94564.31;4376710;32;20249;-62
2023/09/22 08:34:51;;;;;;;0.10;0.10;;;;;;;17.16;94.11;94567.28;4353640;32;20193;-61
2023/09/22 08:37:18;;;;;;;0.33;0.30;;;;;;;16.90;93.19;94556.41;4360425;32;20326;-61
2023/09/22 08:39:44;;;;;;;0.07;0.07;;;;;;;16.94;92.57;94565.28;4370897;32;20302;-62
2023/09/22 08:42:12;;;;;;;0.17;0.17;;;;;;;16.88;91.56;94569.38;4352049;32;20223;-61
2023/09/22 08:44:38;;;;;;;1.03;0.30;;;;;;;16.83;91.84;94575.03;4353439;32;20216;-60
2023/09/22 08:47:04;;;;;;;0.40;0.40;;;;;;;16.75;92.37;94586.72;4368420;32;20188;-61
2023/09/22 08:49:29;;;;;;;0.20;0.20;;;;;;;16.52;92.60;94577.75;4375431;32;20223;-61
2023/09/22 08:51:56;;;;;;;0.63;0.30;;;;;;;16.32;93.70;94583.06;4361680;32;20210;-61
2023/09/22 08:54:25;;;;;;;0.20;0.20;;;;;;;16.12;94.10;94589.47;4377630;32;20188;-61
2023/09/22 08:56:54;;;;;;;0.00;0.00;;;;;;;15.98;94.77;94599.81;4368687;32;20244;-62
2023/09/22 08:59:21;;;;;;;0.40;0.30;;;;;;;15.91;96.03;94610.34;4367573;32;20185;-63
2023/09/22 09:01:47;;;;;;;0.00;0.00;;;;;;;15.88;96.40;94605.66;4376102;32;20184;-64
2023/09/22 09:04:32;;;;;;;0.10;0.10;;;;;;;15.94;96.64;94615.78;4367630;32;20377;-63
2023/09/22 09:07:01;;;;;;;0.30;0.30;;;;;;;15.71;97.50;94618.25;4365581;32;20189;-63
2023/09/22 09:09:47;;;;;;;0.20;0.20;;;;;;;15.62;98.58;94624.88;4356064;32;20256;-63
2023/09/22 09:12:15;;;;;;;0.23;0.23;;;;;;;15.55;99.00;94614.75;4340529;32;20215;-63
2023/09/22 09:14:43;;;;;;;0.40;0.37;;;;;;;15.74;99.00;94600.75;4351024;32;20193;-63
2023/09/22 09:17:22;;;;;;;0.53;0.53;;;;;;;15.61;99.28;94608.03;4347734;32;20199;-63
2023/09/22 09:19:55;;;;;;;0.30;0.30;;;;;;;15.42;99.66;94614.00;4325682;32;20224;-63
2023/09/22 09:22:31;;;;;;;0.00;0.00;;;;;;;15.50;99.99;94606.97;4378186;32;20193;-63
2023/09/22 09:25:09;;;;;;;0.50;0.37;;;;;;;15.52;99.83;94607.41;4375837;32;20210;-62
2023/09/22 09:27:35;;;;;;;0.00;0.00;;;;;;;15.46;99.89;94606.09;4374941;32;20208;-63
2023/09/22 09:30:08;;;;;;;0.20;0.20;;;;;;;15.54;99.67;94615.09;4367698;32;20252;-64
2023/09/22 09:32:34;;;;;;;0.33;0.33;;;;;;;15.40;99.72;94615.47;4349813;32;20192;-63
2023/09/22 09:35:00;;;;;;;0.20;0.20;;;;;;;15.50;98.95;94609.63;4362679;32;20192;-62
2023/09/22 09:37:26;;;;;;;0.40;0.40;;;;;;;15.63;99.10;94605.81;4367475;32;20188;-63
2023/09/22 09:39:58;;;;;;;1.17;0.40;;;;;;;15.50;98.84;94604.28;4368165;32;20269;-62
2023/09/22 09:42:25;;;;;;;0.00;0.00;;;;;;;15.27;99.70;94597.94;4375809;32;20189;-63
2023/09/22 09:45:03;;;;;;;0.13;0.13;;;;;;;15.38;99.12;94607.03;4360989;32;20240;-64
2023/09/22 09:47:34;;;;;;;0.10;0.10;;;;;;;15.24;98.83;94603.94;4317663;32;20210;-63
2023/09/22 09:50:08;;;;;;;0.20;0.20;;;;;;;15.30;97.85;94597.25;4351461;32;20203;-63
2023/09/22 09:52:41;;;;;;;0.37;0.37;;;;;;;15.35;96.00;94602.38;4355644;32;20251;-64
2023/09/22 09:55:14;;;;;;;1.50;1.17;;;;;;;15.57;96.02;94607.19;4374700;32;20188;-64
2023/09/22 09:57:44;;;;;;;0.43;0.43;;;;;;;15.43;96.54;94606.75;4360561;32;20175;-63
2023/09/22 10:00:22;;;;;;;1.00;0.50;;;;;;;15.31;95.69;94612.19;4342849;32;20204;-63
2023/09/22 10:02:51;;;;;;;0.37;0.37;;;;;;;15.09;97.27;94616.16;4326897;32;20185;-62
2023/09/22 10:05:21;;;;;;;0.27;0.27;;;;;;;15.28;97.42;94623.53;4330752;32;20202;-62
2023/09/22 10:07:48;;;;;;;0.20;0.20;;;;;;;15.31;96.51;94636.22;4326837;32;20279;-64
2023/09/22 10:10:18;;;;;;;0.23;0.23;;;;;;;15.31;95.88;94641.56;4361909;32;20279;-63
2023/09/22 10:12:45;;;;;;;0.37;0.37;;;;;;;15.41;96.08;94638.41;4369640;32;20212;-62
2023/09/22 10:15:12;;;;;;;1.50;0.53;;;;;;;15.25;96.45;94637.56;4348954;32;20192;-63
2023/09/22 10:17:38;;;;;;;0.37;0.37;;;;;;;15.26;97.16;94647.94;4333899;32;20299;-62
2023/09/22 10:20:14;;;;;;;0.30;0.30;;;;;;;15.24;97.62;94639.47;4334112;32;20182;-63
2023/09/22 10:22:42;;;;;;;0.40;0.33;;;;;;;15.28;97.22;94636.91;4346217;32;20224;-62
2023/09/22 10:25:20;;;;;;;0.10;0.10;;;;;;;15.37;97.23;94634.87;4353867;32;20199;-63
2023/09/22 10:27:54;;;;;;;0.10;0.10;;;;;;;15.36;97.34;94628.75;4347868;32;20189;-63
2023/09/22 10:30:23;;;;;;;0.10;0.10;;;;;;;15.32;97.95;94613.72;4367797;32;20279;-63
2023/09/22 10:33:10;;;;;;;0.30;0.30;;;;;;;15.23;98.03;94626.44;4341029;32;20184;-63
2023/09/22 10:35:40;;;;;;;0.20;0.20;;;;;;;15.30;97.91;94629.31;4373825;32;20203;-63
2023/09/22 10:38:10;;;;;;;0.00;0.00;;;;;;;15.15;97.98;94635.41;4348798;32;20212;-63
2023/09/22 10:40:40;;;;;;;0.20;0.20;;;;;;;15.25;98.49;94637.56;4346665;32;20209;-62
2023/09/22 10:43:09;;;;;;;1.20;0.30;;;;;;;15.28;98.87;94640.34;4357421;32;20251;-63
2023/09/22 10:45:42;;;;;;;1.93;0.40;;;;;;;15.10;97.50;94631.06;4362354;32;20255;-63
2023/09/22 10:48:11;;;;;;;0.57;0.50;;;;;;;15.33;96.46;94639.34;4348132;32;20189;-62
2023/09/22 10:50:37;;;;;;;0.07;0.07;;;;;;;15.26;97.13;94642.59;4373122;32;20215;-62
2023/09/22 10:53:07;;;;;;;0.20;0.20;;;;;;;15.24;97.11;94652.06;4361336;32;20250;-63
2023/09/22 10:55:41;;;;;;;0.30;0.20;;;;;;;15.14;97.01;94642.63;4362857;32;20219;-62
2023/09/22 10:58:21;;;;;;;0.40;0.40;;;;;;;15.03;97.04;94646.88;4365476;32;20189;-63
2023/09/22 11:01:07;;;;;;;0.03;0.03;;;;;;;14.86;97.42;94641.78;4374291;32;20268;-63
2023/09/22 11:03:35;;;;;;;0.30;0.30;;;;;;;14.87;97.27;94638.00;4373989;32;20215;-63
2023/09/22 11:06:10;;;;;;;0.10;0.10;;;;;;;14.92;97.01;94645.81;4375310;32;20194;-64
2023/09/22 11:08:54;;;;;;;10.93;0.33;;;;;;;14.81;97.54;94642.81;4367230;32;20241;-63
2023/09/22 11:11:21;;;;;;;0.20;0.20;;;;;;;14.99;97.23;94638.75;4357612;32;20189;-64
2023/09/22 11:13:54;;;;;;;0.10;0.10;;;;;;;14.96;96.40;94626.09;4346065;32;20311;-63
2023/09/22 11:16:46;;;;;;;0.30;0.30;;;;;;;14.92;96.97;94627.87;4341874;32;20289;-63
2023/09/22 11:19:12;;;;;;;0.10;0.10;;;;;;;15.03;96.62;94636.97;4362867;32;20354;-63
2023/09/22 11:21:43;;;;;;;0.20;0.20;;;;;;;15.07;97.30;94645.88;4345179;32;20200;-63
2023/09/22 11:24:10;;;;;;;0.17;0.17;;;;;;;15.07;97.57;94648.53;4334986;32;20291;-63
2023/09/22 11:26:47;;;;;;;0.10;0.10;;;;;;;15.19;97.75;94645.03;4344692;32;20211;-63
2023/09/22 11:29:16;;;;;;;0.30;0.30;;;;;;;15.33;97.67;94642.78;4352545;32;20228;-63
2023/09/22 11:31:50;;;;;;;0.10;0.10;;;;;;;15.09;97.47;94643.66;4356070;32;20265;-63
2023/09/22 11:34:23;;;;;;;0.10;0.10;;;;;;;15.15;96.75;94638.06;4370080;32;20252;-63
2023/09/22 11:36:52;;;;;;;0.20;0.20;;;;;;;15.36;97.12;94630.66;4374272;32;20242;-62
2023/09/22 11:39:30;;;;;;;0.10;0.10;;;;;;;15.32;96.15;94643.91;4349077;32;20212;-63